createdAt,value
2022-08-26T00:02:19.300Z,20.00
2022-08-26T00:04:50.503Z,20.00
2022-08-26T00:07:20.423Z,19.94
2022-08-26T00:09:50.327Z,19.92
2022-08-26T00:12:27.864Z,19.89
2022-08-26T00:15:09.912Z,19.90
2022-08-26T00:17:40.368Z,19.87
2022-08-26T00:20:14.281Z,19.85
2022-08-26T00:22:43.962Z,19.83
2022-08-26T00:25:15.302Z,19.80
2022-08-26T00:27:46.325Z,19.84
2022-08-26T00:30:22.892Z,19.86
2022-08-26T00:32:53.710Z,19.84
2022-08-26T00:35:23.603Z,19.86
2022-08-26T00:37:52.963Z,19.83
2022-08-26T00:40:26.549Z,19.79
2022-08-26T00:42:55.577Z,19.79
2022-08-26T00:45:24.603Z,19.79
2022-08-26T00:48:04.005Z,19.78
2022-08-26T00:50:43.011Z,19.79
2022-08-26T00:53:24.020Z,19.80
2022-08-26T00:56:08.472Z,19.82
2022-08-26T00:58:43.611Z,19.80
2022-08-26T01:01:13.038Z,19.81
2022-08-26T01:03:45.051Z,19.80
2022-08-26T01:06:14.729Z,19.78
2022-08-26T01:08:43.197Z,19.79
2022-08-26T01:11:13.313Z,19.79
2022-08-26T01:13:42.853Z,19.78
2022-08-26T01:16:17.151Z,19.78
2022-08-26T01:18:47.471Z,19.83
2022-08-26T01:21:40.770Z,19.80
2022-08-26T01:24:13.954Z,19.77
2022-08-26T01:26:45.568Z,19.81
2022-08-26T01:29:19.179Z,19.82
2022-08-26T01:31:57.058Z,19.79
2022-08-26T01:34:30.649Z,19.77
2022-08-26T01:37:02.471Z,19.68
2022-08-26T01:39:33.802Z,19.67
2022-08-26T01:42:06.322Z,19.67
2022-08-26T01:44:50.116Z,19.64
2022-08-26T01:47:21.332Z,19.66
2022-08-26T01:49:54.717Z,19.65
2022-08-26T01:52:28.395Z,19.64
2022-08-26T01:54:59.576Z,19.64
2022-08-26T01:57:29.792Z,19.60
2022-08-26T02:00:02.459Z,19.60
2022-08-26T02:02:48.281Z,19.60
2022-08-26T02:05:22.647Z,19.60
2022-08-26T02:07:51.326Z,19.60
2022-08-26T02:10:19.894Z,19.61
2022-08-26T02:12:49.622Z,19.62
2022-08-26T02:15:19.963Z,19.60
2022-08-26T02:17:52.644Z,19.57
2022-08-26T02:20:21.879Z,19.53
2022-08-26T02:22:50.353Z,19.54
2022-08-26T02:25:27.638Z,19.54
2022-08-26T02:27:57.305Z,19.52
2022-08-26T02:30:32.261Z,19.52
2022-08-26T02:33:05.305Z,19.50
2022-08-26T02:35:36.700Z,19.46
2022-08-26T02:38:10.009Z,19.44
2022-08-26T02:40:44.000Z,19.42
2022-08-26T02:43:13.006Z,19.38
2022-08-26T02:45:43.562Z,19.38
2022-08-26T02:48:18.881Z,19.37
2022-08-26T02:50:49.840Z,19.36
2022-08-26T02:53:23.186Z,19.34
2022-08-26T02:55:54.012Z,19.33
2022-08-26T02:58:23.816Z,19.33
2022-08-26T03:00:54.752Z,19.33
2022-08-26T03:03:23.847Z,19.31
2022-08-26T03:05:54.430Z,19.30
2022-08-26T03:08:23.228Z,19.30
2022-08-26T03:10:51.768Z,19.29
2022-08-26T03:13:20.218Z,19.28
2022-08-26T03:15:49.679Z,19.27
2022-08-26T03:18:18.297Z,19.23
2022-08-26T03:20:51.092Z,19.21
2022-08-26T03:23:23.891Z,19.17
2022-08-26T03:25:54.363Z,19.15
2022-08-26T03:28:24.463Z,19.15
2022-08-26T03:30:57.827Z,19.13
2022-08-26T03:33:27.573Z,19.13
2022-08-26T03:35:56.100Z,19.16
2022-08-26T03:38:25.542Z,19.14
2022-08-26T03:40:54.070Z,19.14
2022-08-26T03:43:27.260Z,19.17
2022-08-26T03:45:56.187Z,19.18
2022-08-26T03:48:26.989Z,19.24
2022-08-26T03:50:55.341Z,19.29
2022-08-26T03:53:24.351Z,19.32
2022-08-26T03:55:52.695Z,19.35
2022-08-26T03:58:24.912Z,19.41
2022-08-26T04:00:55.747Z,19.47
2022-08-26T04:03:45.296Z,19.47
2022-08-26T04:06:13.740Z,19.46
2022-08-26T04:08:42.217Z,19.49
2022-08-26T04:11:20.136Z,19.49
2022-08-26T04:13:50.820Z,19.49
2022-08-26T04:16:19.335Z,19.51
2022-08-26T04:18:48.659Z,19.56
2022-08-26T04:21:18.289Z,19.59
2022-08-26T04:23:47.807Z,19.60
2022-08-26T04:26:20.090Z,19.63
2022-08-26T04:28:50.237Z,19.66
2022-08-26T04:31:19.982Z,19.69
2022-08-26T04:33:51.291Z,19.70
2022-08-26T04:36:20.212Z,19.75
2022-08-26T04:38:51.487Z,19.83
2022-08-26T04:41:21.906Z,19.85
2022-08-26T04:43:50.920Z,19.86
2022-08-26T04:46:23.441Z,19.91
2022-08-26T04:48:53.977Z,19.94
2022-08-26T04:51:28.381Z,19.98
2022-08-26T04:53:59.271Z,20.02
2022-08-26T04:56:35.307Z,20.06
2022-08-26T04:59:07.277Z,20.09
2022-08-26T05:01:39.467Z,20.12
2022-08-26T05:04:08.329Z,20.16
2022-08-26T05:06:38.959Z,20.19
2022-08-26T05:09:08.290Z,20.18
2022-08-26T05:11:38.909Z,20.19
2022-08-26T05:14:08.091Z,20.19
2022-08-26T05:16:38.952Z,20.16
2022-08-26T05:19:09.211Z,20.15
2022-08-26T05:21:39.341Z,20.16
2022-08-26T05:24:07.966Z,20.23
2022-08-26T05:26:36.511Z,20.30
2022-08-26T05:29:07.098Z,20.33
2022-08-26T05:31:35.940Z,20.34
2022-08-26T05:34:07.012Z,20.41
2022-08-26T05:36:37.845Z,20.49
2022-08-26T05:39:10.574Z,20.53
2022-08-26T05:41:43.147Z,20.61
2022-08-26T05:44:18.959Z,20.66
2022-08-26T05:46:47.858Z,20.68
2022-08-26T05:49:16.946Z,20.67
2022-08-26T05:51:47.654Z,20.64
2022-08-26T05:54:21.803Z,20.70
2022-08-26T05:56:52.288Z,20.81
2022-08-26T05:59:24.537Z,20.90
2022-08-26T06:01:56.735Z,20.94
2022-08-26T06:04:28.261Z,20.95
2022-08-26T06:06:59.080Z,20.95
2022-08-26T06:09:38.506Z,20.99
2022-08-26T06:12:07.332Z,21.09
2022-08-26T06:14:36.789Z,21.13
2022-08-26T06:17:05.391Z,21.21
2022-08-26T06:19:34.418Z,21.32
2022-08-26T06:22:23.805Z,21.46
2022-08-26T06:25:11.687Z,21.58
2022-08-26T06:27:40.211Z,21.68
2022-08-26T06:30:10.514Z,21.77
2022-08-26T06:32:39.102Z,21.87
2022-08-26T06:35:11.901Z,21.93
2022-08-26T06:37:43.328Z,22.04
2022-08-26T06:40:12.857Z,22.16
2022-08-26T06:42:41.770Z,22.27
2022-08-26T06:45:10.550Z,22.38
2022-08-26T06:47:40.687Z,22.51
2022-08-26T06:50:09.701Z,22.62
2022-08-26T06:52:38.161Z,22.76
2022-08-26T06:55:06.911Z,22.87
2022-08-26T06:57:37.804Z,22.94
2022-08-26T07:00:11.841Z,23.03
2022-08-26T07:02:41.317Z,23.05
2022-08-26T07:05:16.673Z,23.15
2022-08-26T07:07:48.644Z,23.29
2022-08-26T07:10:17.173Z,23.40
2022-08-26T07:12:47.142Z,23.45
2022-08-26T07:15:16.811Z,23.51
2022-08-26T07:17:46.378Z,23.62
2022-08-26T07:20:15.120Z,23.72
2022-08-26T07:22:44.988Z,23.83
2022-08-26T07:25:13.429Z,23.92
2022-08-26T07:27:43.133Z,24.01
2022-08-26T07:30:14.889Z,24.08
2022-08-26T07:32:44.668Z,24.10
2022-08-26T07:35:13.117Z,24.20
2022-08-26T07:37:42.923Z,24.30
2022-08-26T07:40:14.381Z,24.41
2022-08-26T07:42:49.706Z,24.53
2022-08-26T07:45:21.722Z,24.66
2022-08-26T07:47:51.390Z,24.79
2022-08-26T07:50:20.563Z,24.89
2022-08-26T07:52:50.910Z,24.94
2022-08-26T07:55:19.576Z,25.03
2022-08-26T07:57:48.041Z,25.14
2022-08-26T08:00:19.277Z,25.23
2022-08-26T08:02:49.898Z,25.30
2022-08-26T08:05:23.009Z,25.42
2022-08-26T08:08:27.091Z,25.56
2022-08-26T08:10:57.817Z,25.64
2022-08-26T08:13:30.134Z,25.65
2022-08-26T08:15:59.188Z,25.68
2022-08-26T08:18:29.363Z,25.74
2022-08-26T08:21:21.350Z,25.78
2022-08-26T08:23:53.821Z,25.82
2022-08-26T08:26:24.883Z,25.85
2022-08-26T08:28:57.847Z,25.96
2022-08-26T08:31:56.185Z,26.08
2022-08-26T08:34:19.959Z,26.14
2022-08-26T08:36:53.289Z,26.23
2022-08-26T08:39:24.047Z,26.28
2022-08-26T08:42:23.515Z,26.32
2022-08-26T08:44:58.924Z,26.41
2022-08-26T08:47:45.371Z,26.52
2022-08-26T08:50:29.467Z,26.60
2022-08-26T08:53:12.427Z,26.71
2022-08-26T08:56:04.344Z,26.81
2022-08-26T08:58:58.152Z,26.89
2022-08-26T09:01:47.988Z,27.00
2022-08-26T09:04:46.654Z,27.11
2022-08-26T09:07:54.444Z,27.20
2022-08-26T09:10:29.244Z,27.34
2022-08-26T09:13:01.088Z,27.42
2022-08-26T09:15:41.120Z,27.47
2022-08-26T09:18:10.903Z,27.51
2022-08-26T09:20:55.393Z,27.60
2022-08-26T09:23:25.568Z,27.67
2022-08-26T09:26:15.253Z,27.70
2022-08-26T09:29:09.650Z,27.83
2022-08-26T09:31:41.353Z,27.94
2022-08-26T09:34:19.091Z,28.07
2022-08-26T09:37:00.612Z,28.11
2022-08-26T09:39:38.032Z,28.16
2022-08-26T09:42:12.011Z,28.19
2022-08-26T09:45:05.690Z,28.24
2022-08-26T09:47:55.538Z,28.36
2022-08-26T09:50:41.583Z,28.51
2022-08-26T09:53:30.512Z,28.62
2022-08-26T09:56:27.504Z,28.68
2022-08-26T09:58:59.318Z,28.73
2022-08-26T10:01:42.715Z,28.81
2022-08-26T10:04:24.761Z,28.86
2022-08-26T10:07:10.567Z,28.95
2022-08-26T10:09:49.025Z,29.11
2022-08-26T10:12:23.497Z,29.22
2022-08-26T10:14:57.999Z,29.28
2022-08-26T10:17:35.201Z,29.40
2022-08-26T10:20:23.641Z,29.48
2022-08-26T10:23:18.502Z,29.44
2022-08-26T10:26:08.334Z,29.50
2022-08-26T10:28:44.375Z,29.55
2022-08-26T10:31:28.239Z,29.66
2022-08-26T10:34:00.475Z,29.75
2022-08-26T10:37:15.835Z,29.74
2022-08-26T10:39:57.287Z,29.78
2022-08-26T10:42:39.751Z,29.87
2022-08-26T10:45:20.720Z,29.96
2022-08-26T10:48:06.313Z,30.05
2022-08-26T10:50:47.418Z,30.12
2022-08-26T10:53:32.760Z,30.19
2022-08-26T10:56:19.932Z,30.27
2022-08-26T10:58:56.041Z,30.37
2022-08-26T11:01:43.572Z,30.46
2022-08-26T11:04:12.705Z,30.55
2022-08-26T11:06:46.814Z,30.52
2022-08-26T11:09:46.390Z,30.51
2022-08-26T11:12:34.031Z,30.59
2022-08-26T11:15:36.822Z,30.61
2022-08-26T11:18:14.082Z,30.69
2022-08-26T11:20:47.373Z,30.73
2022-08-26T11:23:23.275Z,30.80
2022-08-26T11:26:07.177Z,30.85
2022-08-26T11:28:48.662Z,30.88
2022-08-26T11:31:26.720Z,30.98
2022-08-26T11:34:10.803Z,31.04
2022-08-26T11:36:40.221Z,31.07
2022-08-26T11:39:30.519Z,31.09
2022-08-26T11:42:07.261Z,31.10
2022-08-26T11:44:49.078Z,31.11
2022-08-26T11:47:30.126Z,31.18
2022-08-26T11:50:26.484Z,31.13
2022-08-26T11:53:06.405Z,31.19
2022-08-26T11:55:45.160Z,31.17
2022-08-26T11:58:20.079Z,31.19
2022-08-26T12:01:00.036Z,31.22
2022-08-26T12:03:46.796Z,31.26
2022-08-26T12:06:27.887Z,31.36
2022-08-26T12:09:02.236Z,31.42
2022-08-26T12:11:35.238Z,31.41
2022-08-26T12:14:07.917Z,31.38
2022-08-26T12:16:40.553Z,31.40
2022-08-26T12:19:33.939Z,31.41
2022-08-26T12:22:17.951Z,31.46
2022-08-26T12:24:59.731Z,31.52
2022-08-26T12:27:34.523Z,31.49
2022-08-26T12:30:12.409Z,31.43
2022-08-26T12:32:57.561Z,31.47
2022-08-26T12:35:29.686Z,31.60
2022-08-26T12:37:59.318Z,31.69
2022-08-26T12:40:29.407Z,31.73
2022-08-26T12:43:02.064Z,31.79
2022-08-26T12:45:38.394Z,31.75
2022-08-26T12:48:24.535Z,31.76
2022-08-26T12:50:54.613Z,31.79
2022-08-26T12:53:24.747Z,31.86
2022-08-26T12:56:04.341Z,31.90
2022-08-26T12:58:38.777Z,31.94
2022-08-26T13:01:09.297Z,31.98
2022-08-26T13:03:44.070Z,32.00
2022-08-26T13:06:16.791Z,32.01
2022-08-26T13:08:53.088Z,32.00
2022-08-26T13:11:30.277Z,32.00
2022-08-26T13:14:12.509Z,32.01
2022-08-26T13:16:50.048Z,32.06
2022-08-26T13:19:25.925Z,32.10
2022-08-26T13:21:58.474Z,32.08
2022-08-26T13:24:39.301Z,31.98
2022-08-26T13:27:11.578Z,31.92
2022-08-26T13:29:41.628Z,31.89
2022-08-26T13:32:11.143Z,31.96
2022-08-26T13:34:39.627Z,32.01
2022-08-26T13:37:08.070Z,31.99
2022-08-26T13:39:37.665Z,31.94
2022-08-26T13:42:06.317Z,31.87
2022-08-26T13:44:39.728Z,31.81
2022-08-26T13:47:09.320Z,31.80
2022-08-26T13:49:37.866Z,31.82
2022-08-26T13:52:06.404Z,31.78
2022-08-26T13:54:34.889Z,31.71
2022-08-26T13:57:05.700Z,31.63
2022-08-26T13:59:34.355Z,31.58
2022-08-26T14:02:04.795Z,31.56
2022-08-26T14:04:33.320Z,31.53
2022-08-26T14:07:01.892Z,31.46
2022-08-26T14:09:30.375Z,31.40
2022-08-26T14:12:00.970Z,31.33
2022-08-26T14:14:31.217Z,31.25
2022-08-26T14:17:00.538Z,31.21
2022-08-26T14:19:31.007Z,31.16
2022-08-26T14:22:02.031Z,31.13
2022-08-26T14:24:30.825Z,31.11
2022-08-26T14:27:00.236Z,31.08
2022-08-26T14:29:28.855Z,31.08
2022-08-26T14:32:02.598Z,31.05
2022-08-26T14:34:32.175Z,31.04
2022-08-26T14:37:07.393Z,31.00
2022-08-26T14:39:38.294Z,31.02
2022-08-26T14:42:07.467Z,31.02
2022-08-26T14:44:36.579Z,31.04
2022-08-26T14:47:06.908Z,31.05
2022-08-26T14:49:36.617Z,31.05
2022-08-26T14:52:05.269Z,31.04
2022-08-26T14:54:33.876Z,31.05
2022-08-26T14:57:06.669Z,31.07
2022-08-26T14:59:37.960Z,31.05
2022-08-26T15:02:08.525Z,31.05
2022-08-26T15:04:38.248Z,31.23
2022-08-26T15:07:07.706Z,31.21
2022-08-26T15:09:41.275Z,31.22
2022-08-26T15:12:09.810Z,31.22
2022-08-26T15:14:38.619Z,31.36
2022-08-26T15:17:07.260Z,31.72
2022-08-26T15:19:35.671Z,32.06
2022-08-26T15:22:04.252Z,32.39
2022-08-26T15:24:32.669Z,32.33
2022-08-26T15:27:01.198Z,32.17
2022-08-26T15:29:30.038Z,32.04
2022-08-26T15:32:01.821Z,31.96
2022-08-26T15:34:30.266Z,31.95
2022-08-26T15:36:58.865Z,32.06
2022-08-26T15:39:27.990Z,32.94
2022-08-26T15:42:00.139Z,34.78
2022-08-26T15:44:29.994Z,35.15
2022-08-26T15:46:59.421Z,35.21
2022-08-26T15:49:27.979Z,36.62
2022-08-26T15:51:56.378Z,37.57
2022-08-26T15:54:24.908Z,37.99
2022-08-26T15:56:54.293Z,37.38
2022-08-26T15:59:22.931Z,37.47
2022-08-26T16:01:52.296Z,36.84
2022-08-26T16:04:21.624Z,36.13
2022-08-26T16:06:52.052Z,36.03
2022-08-26T16:09:24.506Z,36.07
2022-08-26T16:12:00.342Z,37.44
2022-08-26T16:14:28.868Z,38.65
2022-08-26T16:17:00.699Z,39.60
2022-08-26T16:19:29.549Z,40.22
2022-08-26T16:21:58.066Z,40.71
2022-08-26T16:24:30.393Z,41.18
2022-08-26T16:26:59.856Z,41.49
2022-08-26T16:29:28.465Z,41.90
2022-08-26T16:31:58.739Z,42.37
2022-08-26T16:34:27.359Z,42.67
2022-08-26T16:36:55.780Z,42.99
2022-08-26T16:39:24.619Z,43.31
2022-08-26T16:41:52.966Z,43.34
2022-08-26T16:44:22.734Z,43.35
2022-08-26T16:46:52.996Z,43.42
2022-08-26T16:49:27.544Z,43.14
2022-08-26T16:51:56.191Z,42.75
2022-08-26T16:54:25.055Z,42.36
2022-08-26T16:56:53.496Z,41.80
2022-08-26T16:59:22.428Z,41.28
2022-08-26T17:01:51.050Z,40.80
2022-08-26T17:04:20.301Z,40.28
2022-08-26T17:06:49.286Z,39.55
2022-08-26T17:09:18.280Z,38.97
2022-08-26T17:11:47.303Z,38.28
2022-08-26T17:14:15.770Z,37.30
2022-08-26T17:16:46.992Z,36.03
2022-08-26T17:19:17.926Z,34.80
2022-08-26T17:21:48.340Z,33.61
2022-08-26T17:24:16.992Z,32.65
2022-08-26T17:26:48.400Z,31.81
2022-08-26T17:29:22.303Z,30.89
2022-08-26T17:31:50.753Z,30.15
2022-08-26T17:34:19.817Z,29.74
2022-08-26T17:36:49.143Z,29.34
2022-08-26T17:39:17.628Z,28.84
2022-08-26T17:41:46.020Z,28.29
2022-08-26T17:44:14.433Z,27.83
2022-08-26T17:46:43.093Z,27.46
2022-08-26T17:49:11.540Z,27.10
2022-08-26T17:51:41.142Z,26.77
2022-08-26T17:54:09.562Z,26.44
2022-08-26T17:56:38.781Z,26.15
2022-08-26T17:59:07.263Z,25.88
2022-08-26T18:01:36.202Z,25.60
2022-08-26T18:04:05.049Z,25.33
2022-08-26T18:06:35.019Z,25.10
2022-08-26T18:09:04.045Z,24.89
2022-08-26T18:11:33.932Z,24.69
2022-08-26T18:14:02.367Z,24.50
2022-08-26T18:16:34.557Z,24.32
2022-08-26T18:19:03.122Z,24.13
2022-08-26T18:21:31.781Z,24.00
2022-08-26T18:24:00.224Z,23.87
2022-08-26T18:26:33.783Z,23.78
2022-08-26T18:29:04.199Z,23.69
2022-08-26T18:31:33.661Z,23.59
2022-08-26T18:34:03.590Z,23.48
2022-08-26T18:36:37.187Z,23.37
2022-08-26T18:39:08.136Z,23.27
2022-08-26T18:41:56.808Z,23.15
2022-08-26T18:44:25.691Z,23.04
2022-08-26T18:46:54.199Z,22.92
2022-08-26T18:49:23.043Z,22.82
2022-08-26T18:51:52.897Z,22.71
2022-08-26T18:54:22.115Z,22.59
2022-08-26T18:56:50.890Z,22.51
2022-08-26T18:59:19.824Z,22.45
2022-08-26T19:01:59.798Z,22.38
2022-08-26T19:04:28.282Z,22.31
2022-08-26T19:06:57.201Z,22.23
2022-08-26T19:09:27.291Z,22.16
2022-08-26T19:14:31.611Z,21.98
2022-08-26T19:17:01.849Z,21.89
2022-08-26T19:19:30.921Z,21.82
2022-08-26T19:22:00.442Z,21.77
2022-08-26T19:24:29.051Z,21.68
2022-08-26T19:27:00.724Z,21.62
2022-08-26T19:29:33.851Z,21.55
2022-08-26T19:32:04.543Z,21.46
2022-08-26T19:34:33.774Z,21.38
2022-08-26T19:37:02.997Z,21.30
2022-08-26T19:39:31.441Z,21.21
2022-08-26T19:42:00.807Z,21.12
2022-08-26T19:44:47.852Z,21.10
2022-08-26T19:47:16.361Z,21.08
2022-08-26T19:49:46.161Z,21.03
2022-08-26T19:52:14.586Z,20.93
2022-08-26T19:54:43.012Z,20.84
2022-08-26T19:57:11.538Z,20.74
2022-08-26T19:59:41.688Z,20.65
2022-08-26T20:02:11.659Z,20.58
2022-08-26T20:04:42.297Z,20.53
2022-08-26T20:07:15.324Z,20.51
2022-08-26T20:09:49.531Z,20.48
2022-08-26T20:12:19.266Z,20.46
2022-08-26T20:14:47.784Z,20.44
2022-08-26T20:17:17.583Z,20.41
2022-08-26T20:20:05.440Z,20.38
2022-08-26T20:22:44.833Z,20.33
2022-08-26T20:25:13.307Z,20.29
2022-08-26T20:27:41.833Z,20.27
2022-08-26T20:30:11.831Z,20.25
2022-08-26T20:32:40.976Z,20.24
2022-08-26T20:35:12.560Z,20.21
2022-08-26T20:37:42.231Z,20.16
2022-08-26T20:40:14.478Z,20.10
2022-08-26T20:42:43.240Z,20.06
2022-08-26T20:45:11.773Z,20.01
2022-08-26T20:47:40.241Z,19.94
2022-08-26T20:50:09.165Z,19.90
2022-08-26T20:52:37.868Z,19.87
2022-08-26T20:55:07.198Z,19.85
2022-08-26T20:57:35.923Z,19.83
2022-08-26T21:00:06.298Z,19.80
2022-08-26T21:02:35.788Z,19.74
2022-08-26T21:05:05.874Z,19.67
2022-08-26T21:07:35.221Z,19.59
2022-08-26T21:10:05.238Z,19.52
2022-08-26T21:12:33.924Z,19.45
2022-08-26T21:15:03.938Z,19.40
2022-08-26T21:17:32.440Z,19.35
2022-08-26T21:20:01.426Z,19.31
2022-08-26T21:22:30.470Z,19.28
2022-08-26T21:24:58.943Z,19.27
2022-08-26T21:27:27.914Z,19.27
2022-08-26T21:29:56.920Z,19.27
2022-08-26T21:32:25.466Z,19.28
2022-08-26T21:34:56.854Z,19.26
2022-08-26T21:37:28.626Z,19.24
2022-08-26T21:40:02.357Z,19.22
2022-08-26T21:42:33.992Z,19.19
2022-08-26T21:45:05.244Z,19.17
2022-08-26T21:47:34.020Z,19.13
2022-08-26T21:50:04.864Z,19.09
2022-08-26T21:52:34.152Z,19.04
2022-08-26T21:55:04.970Z,19.00
2022-08-26T21:57:39.086Z,18.94
2022-08-26T22:00:10.709Z,18.92
2022-08-26T22:02:39.478Z,18.92
2022-08-26T22:05:09.558Z,18.89
2022-08-26T22:07:38.148Z,18.87
2022-08-26T22:10:08.880Z,18.84
2022-08-26T22:12:38.694Z,18.84
2022-08-26T22:15:08.933Z,18.85
2022-08-26T22:17:39.049Z,18.88
2022-08-26T22:20:16.291Z,18.86
2022-08-26T22:22:46.397Z,18.86
2022-08-26T22:25:14.874Z,18.84
2022-08-26T22:27:43.430Z,18.79
2022-08-26T22:30:12.493Z,18.70
2022-08-26T22:32:41.252Z,18.62
2022-08-26T22:35:29.185Z,18.53
2022-08-26T22:37:59.719Z,18.47
2022-08-26T22:40:29.019Z,18.44
2022-08-26T22:42:58.708Z,18.44
2022-08-26T22:45:31.809Z,18.43
2022-08-26T22:48:05.441Z,18.44
2022-08-26T22:50:34.114Z,18.43
2022-08-26T22:53:03.464Z,18.42
2022-08-26T22:55:32.049Z,18.41
2022-08-26T22:58:01.331Z,18.40
2022-08-26T23:00:31.989Z,18.39
2022-08-26T23:03:05.007Z,18.40
2022-08-26T23:05:34.597Z,18.37
2022-08-26T23:08:03.419Z,18.35
2022-08-26T23:10:33.259Z,18.31
2022-08-26T23:13:08.373Z,18.25
2022-08-26T23:15:42.877Z,18.19
2022-08-26T23:18:14.383Z,18.10
2022-08-26T23:20:43.706Z,18.04
2022-08-26T23:23:12.338Z,18.00
2022-08-26T23:25:40.830Z,17.99
2022-08-26T23:28:10.407Z,17.97
2022-08-26T23:30:39.639Z,17.93
2022-08-26T23:33:08.098Z,17.89
2022-08-26T23:35:36.639Z,17.86
2022-08-26T23:38:09.691Z,17.84
2022-08-26T23:40:41.250Z,17.82
2022-08-26T23:43:17.120Z,17.82
2022-08-26T23:45:45.848Z,17.80
2022-08-26T23:48:14.415Z,17.74
2022-08-26T23:51:05.369Z,17.70
2022-08-26T23:53:34.803Z,17.72
2022-08-26T23:56:03.808Z,17.70
2022-08-26T23:58:32.470Z,17.67
